createdAt,value
2022-09-21T00:00:40.325Z,9.60
2022-09-21T00:11:08.947Z,7.90
2022-09-21T00:21:18.484Z,8.60
2022-09-21T00:31:25.808Z,9.80
2022-09-21T00:41:35.256Z,10.30
2022-09-21T00:51:42.955Z,7.40
2022-09-21T01:01:50.876Z,9.30
2022-09-21T01:11:59.366Z,13.30
2022-09-21T01:22:15.742Z,14.10
2022-09-21T01:32:27.987Z,10.70
2022-09-21T01:42:37.067Z,11.30
2022-09-21T01:52:50.638Z,10.30
2022-09-21T02:03:00.126Z,7.50
2022-09-21T02:23:17.498Z,9.20
2022-09-21T02:33:26.613Z,7.70
2022-09-21T02:43:31.574Z,9.00
2022-09-21T02:53:41.964Z,10.80
2022-09-21T03:03:49.817Z,14.10
2022-09-21T03:13:57.290Z,13.70
2022-09-21T03:24:05.340Z,12.70
2022-09-21T03:34:11.877Z,18.70
2022-09-21T03:44:20.178Z,20.30
2022-09-21T03:54:27.382Z,17.50
2022-09-21T04:04:33.608Z,18.20
2022-09-21T04:14:40.635Z,24.00
2022-09-21T04:24:48.054Z,20.70
2022-09-21T04:34:55.543Z,21.00
2022-09-21T04:45:02.778Z,26.70
2022-09-21T04:55:11.191Z,30.40
2022-09-21T05:05:18.401Z,36.30
2022-09-21T05:15:25.627Z,23.10
2022-09-21T05:25:33.478Z,24.70
2022-09-21T05:35:47.895Z,22.00
2022-09-21T05:45:57.481Z,19.50
2022-09-21T05:56:11.723Z,16.10
2022-09-21T06:06:19.043Z,15.00
2022-09-21T06:16:25.262Z,13.50
2022-09-21T06:26:32.504Z,15.90
2022-09-21T06:36:38.720Z,12.20
2022-09-21T06:46:45.927Z,7.50
2022-09-21T06:56:51.990Z,13.10
2022-09-21T07:07:00.631Z,18.90
2022-09-21T07:17:09.619Z,20.10
2022-09-21T07:27:23.248Z,24.30
2022-09-21T07:37:32.941Z,21.00
2022-09-21T07:47:40.364Z,14.00
2022-09-21T07:58:04.960Z,17.50
2022-09-21T08:08:12.415Z,10.90
2022-09-21T08:18:17.588Z,17.30
2022-09-21T08:28:23.717Z,18.60
2022-09-21T08:38:36.987Z,27.90
2022-09-21T08:48:49.797Z,19.00
2022-09-21T08:58:57.048Z,16.50
2022-09-21T09:09:11.717Z,19.90
2022-09-21T09:19:23.706Z,13.40
2022-09-21T09:29:31.491Z,15.10
2022-09-21T09:39:39.872Z,12.20
2022-09-21T09:49:45.576Z,9.10
2022-09-21T09:59:55.373Z,7.50
2022-09-21T10:10:02.558Z,10.90
2022-09-21T10:20:16.073Z,7.30
2022-09-21T10:30:42.090Z,8.20
2022-09-21T10:40:50.198Z,9.70
2022-09-21T10:50:59.646Z,7.90
2022-09-21T11:01:24.702Z,6.30
2022-09-21T11:11:37.327Z,4.40
2022-09-21T11:21:50.176Z,4.30
2022-09-21T11:32:11.808Z,7.40
2022-09-21T11:52:47.576Z,3.80
2022-09-21T12:03:29.662Z,5.40
2022-09-21T12:13:42.103Z,5.80
2022-09-21T12:23:50.007Z,2.90
2022-09-21T12:34:03.128Z,6.50
2022-09-21T12:44:14.288Z,4.80
2022-09-21T12:54:21.381Z,4.80
2022-09-21T13:04:38.852Z,5.50
2022-09-21T13:14:48.949Z,5.30
2022-09-21T13:25:03.779Z,6.50
2022-09-21T13:35:42.809Z,1.50
2022-09-21T13:56:12.636Z,3.30
2022-09-21T14:17:00.995Z,2.40
2022-09-21T14:27:16.504Z,4.50
2022-09-21T14:37:39.387Z,3.40
2022-09-21T14:47:56.557Z,3.50
2022-09-21T14:58:14.920Z,1.20
2022-09-21T15:08:58.367Z,2.50
2022-09-21T15:19:07.314Z,2.60
2022-09-21T15:29:13.880Z,4.80
2022-09-21T15:39:29.649Z,6.70
2022-09-21T15:49:38.191Z,10.90
2022-09-21T15:59:44.978Z,15.10
2022-09-21T16:09:52.395Z,8.10
2022-09-21T16:20:19.991Z,8.00
2022-09-21T16:30:46.984Z,8.00
2022-09-21T16:40:54.913Z,6.40
2022-09-21T16:51:02.638Z,9.40
2022-09-21T17:01:13.059Z,21.90
2022-09-21T17:11:21.573Z,17.80
2022-09-21T17:21:29.165Z,7.60
2022-09-21T17:31:38.870Z,15.60
2022-09-21T17:41:48.723Z,13.90
2022-09-21T17:52:11.149Z,7.30
2022-09-21T18:02:15.349Z,7.90
2022-09-21T18:12:38.215Z,6.30
2022-09-21T18:22:43.140Z,7.20
2022-09-21T18:32:52.362Z,11.60
2022-09-21T18:42:57.978Z,7.30
2022-09-21T18:53:14.795Z,5.20
2022-09-21T19:03:23.445Z,10.90
2022-09-21T19:13:32.789Z,8.90
2022-09-21T19:33:50.385Z,16.90
2022-09-21T19:43:55.945Z,31.70
2022-09-21T19:54:22.073Z,12.90
2022-09-21T20:04:34.732Z,10.50
2022-09-21T20:14:39.518Z,12.10
2022-09-21T20:24:45.812Z,10.40
2022-09-21T20:34:52.853Z,28.20
2022-09-21T20:45:00.403Z,43.90
2022-09-21T20:55:06.813Z,52.40
2022-09-21T21:05:14.245Z,50.90
2022-09-21T21:15:20.247Z,45.40
2022-09-21T21:25:26.469Z,29.40
2022-09-21T21:35:33.515Z,30.60
2022-09-21T21:45:40.211Z,14.30
2022-09-21T21:55:47.730Z,12.50
2022-09-21T22:05:57.996Z,11.50
2022-09-21T22:16:04.157Z,12.60
2022-09-21T22:26:13.220Z,12.70
2022-09-21T22:36:22.024Z,16.50
2022-09-21T22:46:31.148Z,12.40
2022-09-21T22:56:38.435Z,30.60
2022-09-21T23:06:46.507Z,18.00
2022-09-21T23:16:53.269Z,18.90
2022-09-21T23:27:00.590Z,23.20
2022-09-21T23:37:08.051Z,15.20
2022-09-21T23:47:15.059Z,22.50
2022-09-21T23:57:22.242Z,14.10
